Time;durP1;ratioP1;P1;durP2;ratioP2;P2;SDS_P1;SDS_P2;PMS_P1;PMS_P2;Temp;Humidity;BMP_temperature;BMP_pressure;BME280_temperature;BME280_humidity;BME280_pressure;Samples;Min_cycle;Max_cycle;Signal;HPM_P1;HPM_P2
2022/08/13 00:00:41;;;;;;;4.00;3.70;;;17.00;56.20;;;16.86;56.49;98039.06;5029655;28;20966;-68
2022/08/13 00:03:13;;;;;;;3.80;3.50;;;16.90;56.30;;;16.88;56.64;98036.88;5024957;28;20565;-68
2022/08/13 00:05:40;;;;;;;4.13;3.50;;;16.90;56.80;;;16.88;56.66;98036.88;5051404;28;20480;-69
2022/08/13 00:08:07;;;;;;;3.77;3.47;;;16.90;56.60;;;16.84;56.75;98038.47;5042859;28;20874;-70
2022/08/13 00:10:36;;;;;;;3.73;3.37;;;16.80;56.80;;;16.75;56.97;98037.28;5030786;28;20478;-68
2022/08/13 00:13:04;;;;;;;4.17;3.77;;;16.70;56.90;;;16.74;57.38;98032.91;5021558;28;20653;-70
2022/08/13 00:15:35;;;;;;;3.43;3.13;;;16.70;57.10;;;16.84;56.77;98030.31;5008724;28;20726;-69
2022/08/13 00:18:09;;;;;;;4.23;3.83;;;16.70;57.10;;;16.80;56.81;98029.16;5012293;28;20463;-68
2022/08/13 00:20:40;;;;;;;4.10;3.80;;;16.70;57.30;;;16.67;57.03;98030.38;5026290;28;20525;-69
2022/08/13 00:23:13;;;;;;;3.40;3.10;;;16.60;57.50;;;16.63;57.32;98024.63;5027023;28;20467;-69
2022/08/13 00:25:41;;;;;;;3.37;3.17;;;16.50;57.80;;;16.73;57.34;98028.53;5018845;28;20976;-68
2022/08/13 00:28:09;;;;;;;3.90;3.50;;;16.50;57.90;;;16.66;57.64;98029.56;5031730;28;20474;-69
2022/08/13 00:30:38;;;;;;;4.73;3.30;;;16.40;58.40;;;16.49;58.22;98023.38;5030823;28;20450;-69
2022/08/13 00:33:12;;;;;;;5.83;3.20;;;16.30;58.70;;;16.54;57.94;98026.97;5030508;28;20468;-69
2022/08/13 00:35:41;;;;;;;3.47;3.17;;;16.30;59.00;;;16.64;57.84;98031.72;5028665;28;20460;-70
2022/08/13 00:38:13;;;;;;;3.67;3.40;;;16.20;59.30;;;16.64;57.54;98034.44;5031356;28;20450;-69
2022/08/13 00:40:43;;;;;;;3.43;3.13;;;16.20;59.30;;;16.42;57.85;98007.19;5017849;28;20470;-70
2022/08/13 00:43:10;;;;;;;3.50;3.13;;;16.10;59.60;;;16.56;57.70;98034.88;5021798;28;20921;-69
2022/08/13 00:45:38;;;;;;;3.87;3.57;;;16.00;59.90;;;16.55;57.96;98033.25;5028889;28;20860;-70
2022/08/13 00:50:56;;;;;;;3.70;3.40;;;16.00;60.50;;;16.33;58.28;98017.72;5046772;28;20469;-69
2022/08/13 00:53:25;;;;;;;3.50;3.30;;;15.90;60.70;;;16.35;58.27;98023.75;5030366;28;20519;-69
2022/08/13 00:55:56;;;;;;;3.60;3.37;;;15.90;60.90;;;16.37;58.65;98016.13;5030478;28;20472;-69
2022/08/13 00:58:26;;;;;;;3.67;3.37;;;15.90;61.10;;;16.24;58.88;98003.72;5030981;28;20462;-70
2022/08/13 01:00:58;;;;;;;3.37;3.07;;;16.00;61.40;;;16.25;58.45;98007.25;5047535;28;20547;-69
2022/08/13 01:03:30;;;;;;;3.67;3.17;;;16.00;61.30;;;16.16;58.67;97993.22;5029800;28;20500;-71
2022/08/13 01:05:59;;;;;;;3.63;3.33;;;16.00;61.30;;;16.25;58.95;97991.72;5054474;28;20460;-69
2022/08/13 01:08:31;;;;;;;3.33;3.13;;;16.00;61.70;;;16.33;59.06;97997.78;5048669;28;20493;-70
2022/08/13 01:11:04;;;;;;;3.27;3.07;;;16.10;61.60;;;16.30;58.68;97988.22;5050782;28;20450;-69
2022/08/13 01:13:34;;;;;;;3.87;3.53;;;16.10;61.30;;;16.23;58.67;98007.50;5050777;28;20938;-70
2022/08/13 01:16:04;;;;;;;4.00;3.50;;;16.10;61.30;;;16.20;58.78;97993.56;5013107;28;20477;-69
2022/08/13 01:18:36;;;;;;;3.60;3.40;;;16.00;61.50;;;16.13;59.31;97983.66;5010038;28;20463;-70
2022/08/13 01:21:15;;;;;;;4.03;3.57;;;15.90;62.00;;;16.08;59.60;97997.22;5011015;28;20961;-70
2022/08/13 01:23:46;;;;;;;3.33;3.03;;;15.90;62.70;;;16.10;59.47;98000.50;5025165;28;20525;-69
2022/08/13 01:26:16;;;;;;;4.37;3.10;;;15.90;62.90;;;16.05;60.16;97994.16;5023811;28;20519;-70
2022/08/13 01:28:44;;;;;;;4.07;3.77;;;15.80;63.20;;;15.90;60.56;98000.25;5044022;28;20570;-70
2022/08/13 01:31:15;;;;;;;3.63;3.17;;;15.70;63.60;;;15.88;60.59;98003.16;5045911;28;20453;-69
2022/08/13 01:33:44;;;;;;;4.20;3.80;;;15.60;64.20;;;15.84;60.54;98008.28;5027964;28;20481;-69
2022/08/13 01:36:13;;;;;;;4.40;4.10;;;15.60;64.50;;;15.84;61.06;98002.84;5029746;28;20458;-69
2022/08/13 01:38:43;;;;;;;3.83;3.53;;;15.50;64.90;;;15.90;60.77;98005.69;5044022;28;20504;-69
2022/08/13 01:41:11;;;;;;;4.37;4.07;;;15.40;65.60;;;15.94;60.63;98007.66;5045125;28;20895;-69
2022/08/13 01:43:42;;;;;;;4.60;3.83;;;15.50;65.60;;;15.73;61.03;98001.06;5029119;28;20450;-69
2022/08/13 01:46:12;;;;;;;4.33;3.97;;;15.40;66.20;;;15.66;61.43;97997.66;5044853;28;20456;-69
2022/08/13 01:51:30;;;;;;;4.43;4.13;;;15.20;67.50;;;15.60;61.39;97987.78;5045462;28;20450;-70
2022/08/13 01:54:00;;;;;;;4.97;4.57;;;15.20;67.70;;;15.41;62.25;97998.94;5028946;28;20458;-70
2022/08/13 01:56:29;;;;;;;4.60;4.20;;;15.20;68.20;;;15.36;62.30;98002.41;5026952;28;20449;-70
2022/08/13 01:59:01;;;;;;;4.30;3.90;;;15.20;68.50;;;15.27;62.21;97992.97;5036521;28;20946;-70
2022/08/13 02:01:30;;;;;;;4.60;4.30;;;15.10;68.70;;;15.17;62.66;97982.75;5028708;28;20553;-71
2022/08/13 02:03:58;;;;;;;4.33;4.03;;;15.10;69.10;;;15.26;62.81;97994.06;5028610;28;20449;-70
2022/08/13 02:06:29;;;;;;;4.27;3.87;;;15.00;69.90;;;15.21;62.89;97994.78;5028016;28;20453;-69
2022/08/13 02:09:02;;;;;;;4.00;3.70;;;15.00;70.00;;;15.27;62.43;97993.81;5028231;28;20565;-69
2022/08/13 02:11:34;;;;;;;5.03;4.20;;;15.00;70.30;;;15.30;62.24;97997.91;5029316;28;20926;-70
2022/08/13 02:14:04;;;;;;;3.83;3.53;;;15.00;70.40;;;15.23;62.73;97992.63;5026054;28;20486;-70
2022/08/13 02:16:32;;;;;;;4.63;4.27;;;14.90;70.90;;;15.27;62.57;97988.38;5029772;28;20489;-70
2022/08/13 02:19:01;;;;;;;3.93;3.57;;;14.90;71.30;;;15.34;62.13;97984.66;5028453;28;21083;-70
2022/08/13 02:21:32;;;;;;;4.40;4.10;;;15.00;71.10;;;15.44;62.14;97976.66;5030032;28;20453;-70
2022/08/13 02:24:03;;;;;;;4.10;3.73;;;15.10;71.10;;;15.40;62.34;97980.97;5027014;28;20497;-70
2022/08/13 02:26:33;;;;;;;3.97;3.67;;;15.20;71.00;;;15.46;63.20;97982.69;5027308;28;20519;-69
2022/08/13 02:29:04;;;;;;;4.50;4.10;;;15.30;71.50;;;15.38;63.09;97972.19;5043732;28;20578;-70
2022/08/13 02:31:31;;;;;;;4.13;3.83;;;15.30;71.30;;;15.37;62.72;97965.09;5028286;28;20468;-70
2022/08/13 02:34:01;;;;;;;4.93;4.37;;;15.30;71.10;;;15.34;62.70;97966.44;5026617;28;20561;-70
2022/08/13 02:36:30;;;;;;;4.57;4.17;;;15.30;71.70;;;15.49;62.57;97976.72;5028212;28;20470;-70
2022/08/13 02:39:00;;;;;;;6.80;4.53;;;15.30;71.30;;;15.45;62.81;97956.53;5028277;28;20948;-70
2022/08/13 02:41:42;;;;;;;4.47;4.23;;;15.20;72.20;;;15.42;62.89;97967.91;5029567;28;20467;-69
2022/08/13 02:44:13;;;;;;;4.53;4.13;;;15.20;72.30;;;15.27;63.14;97977.47;5042163;28;20462;-69
2022/08/13 02:46:42;;;;;;;4.30;4.10;;;15.00;72.60;;;15.23;63.16;97970.06;5028823;28;20540;-68
2022/08/13 02:49:09;;;;;;;4.13;3.93;;;15.00;72.70;;;15.08;63.39;97963.28;5027052;28;20988;-68
2022/08/13 02:51:38;;;;;;;5.10;4.60;;;14.80;74.10;;;15.06;63.91;97967.31;5043693;28;20494;-70
2022/08/13 02:54:07;;;;;;;4.50;4.20;;;14.70;74.40;;;15.04;63.63;97966.75;5028150;28;20472;-70
2022/08/13 02:56:36;;;;;;;4.23;3.93;;;14.60;74.50;;;15.02;63.69;97954.22;5028986;28;20467;-69
2022/08/13 02:59:08;;;;;;;4.87;4.47;;;14.60;75.20;;;15.07;63.80;97966.25;5027787;28;20448;-70
2022/08/13 03:01:38;;;;;;;4.13;3.83;;;14.60;75.50;;;15.05;63.76;97960.22;5027052;28;20539;-69
2022/08/13 03:04:06;;;;;;;4.50;4.20;;;14.70;75.40;;;15.02;64.22;97973.25;5026620;28;20458;-69
2022/08/13 03:06:33;;;;;;;4.27;4.03;;;14.70;75.90;;;14.96;64.67;97974.25;5042740;28;20461;-70
2022/08/13 03:09:02;;;;;;;4.30;4.00;;;14.70;75.90;;;14.78;65.26;97958.97;5046384;28;20511;-69
2022/08/13 03:11:32;;;;;;;4.80;4.40;;;14.60;76.60;;;14.80;64.48;97977.75;5048641;28;20467;-69
2022/08/13 03:14:05;;;;;;;5.93;4.30;;;14.60;76.20;;;14.80;64.89;97966.88;5027687;28;20562;-70
2022/08/13 03:16:32;;;;;;;4.70;4.30;;;14.50;76.90;;;14.83;64.67;97972.63;5028467;28;20457;-69
2022/08/13 03:19:00;;;;;;;4.40;4.10;;;14.40;77.40;;;14.80;64.56;97967.69;5026663;28;20457;-70
2022/08/13 03:21:30;;;;;;;4.57;4.23;;;14.40;77.60;;;14.78;65.20;97966.28;5041958;28;20461;-69
2022/08/13 03:23:57;;;;;;;3.80;3.60;;;14.40;77.80;;;14.72;65.27;97971.63;5027525;28;21125;-69
2022/08/13 03:26:25;;;;;;;4.63;4.23;;;14.40;78.00;;;14.68;65.65;97973.16;5027773;28;20479;-69
2022/08/13 03:28:54;;;;;;;5.20;4.70;;;14.40;78.30;;;14.72;64.98;97973.53;5027616;28;20569;-69
2022/08/13 03:31:22;;;;;;;4.70;4.30;;;14.40;78.00;;;14.80;65.19;97966.88;5027287;28;21031;-68
2022/08/13 03:33:52;;;;;;;5.10;4.60;;;14.40;77.90;;;14.81;65.06;97965.81;5025787;28;20819;-70
2022/08/13 03:36:20;;;;;;;6.97;4.63;;;14.50;77.90;;;14.79;64.97;97959.81;5027037;28;20457;-69
2022/08/13 03:38:47;;;;;;;4.70;4.40;;;14.40;78.10;;;14.51;66.17;97964.94;5027545;28;20460;-70
2022/08/13 03:41:15;;;;;;;5.53;5.13;;;14.40;78.50;;;14.49;66.35;97971.72;5028778;28;20444;-70
2022/08/13 03:43:45;;;;;;;5.27;4.87;;;14.30;79.20;;;14.48;66.28;97970.03;5025604;28;20538;-70
2022/08/13 03:46:16;;;;;;;4.73;3.77;;;14.30;79.30;;;14.43;66.39;97968.06;5027415;28;20517;-70
2022/08/13 03:48:48;;;;;;;5.13;4.67;;;14.30;78.90;;;14.40;66.28;97974.81;5042315;28;20858;-70
2022/08/13 03:51:19;;;;;;;5.60;5.03;;;14.30;79.30;;;14.25;66.79;97983.47;5042487;28;20458;-68
2022/08/13 03:53:46;;;;;;;10.00;5.57;;;14.20;79.30;;;14.20;66.87;97977.13;5026105;28;20704;-69
2022/08/13 03:56:15;;;;;;;6.20;5.07;;;14.10;80.10;;;14.06;67.36;97987.41;5027019;28;20571;-69
2022/08/13 03:58:44;;;;;;;6.57;5.83;;;14.00;80.90;;;14.05;67.66;97983.88;5027349;28;20444;-69
2022/08/13 04:01:15;;;;;;;5.27;4.87;;;13.90;80.80;;;14.13;67.47;97991.66;5026927;28;20486;-69
2022/08/13 04:03:42;;;;;;;6.47;5.83;;;13.90;81.30;;;14.09;67.41;97985.03;5027267;28;20824;-69
2022/08/13 04:06:15;;;;;;;5.50;5.07;;;13.90;81.40;;;14.22;67.11;97983.13;5025633;28;20512;-70
2022/08/13 04:08:43;;;;;;;5.43;4.93;;;13.90;81.20;;;14.24;66.97;97981.00;5027515;28;20469;-69
2022/08/13 04:11:13;;;;;;;5.00;4.70;;;14.00;81.10;;;14.21;66.94;97976.06;5027403;28;20566;-68
2022/08/13 04:13:42;;;;;;;7.30;4.83;;;14.00;81.40;;;14.21;66.89;97979.56;5011930;28;20965;-68
2022/08/13 04:16:15;;;;;;;5.93;5.47;;;14.00;80.90;;;14.09;67.45;97979.63;5021912;28;21059;-70
2022/08/13 04:18:45;;;;;;;5.80;5.00;;;14.00;81.20;;;14.05;67.46;97978.44;5021661;28;20518;-69
2022/08/13 04:21:15;;;;;;;6.10;5.53;;;14.00;81.00;;;14.14;67.10;97977.00;5022972;28;20462;-69
2022/08/13 04:23:44;;;;;;;5.93;5.37;;;14.00;80.90;;;14.02;67.29;97979.75;5007364;28;20553;-69
2022/08/13 04:26:14;;;;;;;6.60;5.60;;;13.90;81.20;;;14.08;67.52;97988.84;5035820;28;20469;-69
2022/08/13 04:28:42;;;;;;;5.67;5.27;;;14.00;81.00;;;14.15;67.13;97978.66;5041197;28;20457;-69
2022/08/13 04:31:10;;;;;;;5.57;5.13;;;14.00;80.90;;;14.36;66.50;97986.41;5028291;28;20453;-69
2022/08/13 04:33:40;;;;;;;5.77;5.37;;;14.10;80.30;;;14.05;66.45;97929.56;5025659;28;20458;-69
2022/08/13 04:36:09;;;;;;;7.37;5.50;;;14.30;79.80;;;14.58;65.32;97981.97;5028860;28;20460;-70
2022/08/13 04:38:37;;;;;;;6.00;5.40;;;14.40;79.10;;;15.07;64.43;97977.13;5045730;28;20465;-70
2022/08/13 04:41:04;;;;;;;6.00;5.50;;;14.80;78.20;;;15.75;62.00;97977.13;5046909;28;20931;-70
2022/08/13 04:43:32;;;;;;;5.27;4.87;;;15.60;75.50;;;16.94;58.14;97977.72;5030190;28;20466;-69
2022/08/13 04:46:00;;;;;;;5.57;5.17;;;16.60;72.10;;;17.72;54.97;97983.84;5047411;28;20517;-69
2022/08/13 04:48:31;;;;;;;5.17;4.67;;;17.50;68.00;;;18.23;53.44;97978.72;5049323;28;20441;-71
2022/08/13 04:51:01;;;;;;;4.80;4.37;;;18.20;65.40;;;18.56;52.42;97981.28;5050241;28;20460;-70
2022/08/13 04:53:30;;;;;;;5.40;5.00;;;18.70;63.10;;;19.20;50.65;97967.47;5049458;28;20454;-71
2022/08/13 04:55:59;;;;;;;6.87;4.70;;;19.30;61.30;;;18.58;51.92;97973.66;5036673;28;20474;-70
2022/08/13 04:58:32;;;;;;;5.23;4.70;;;19.40;60.00;;;19.15;50.42;97973.75;5029540;28;20589;-70
2022/08/13 05:01:00;;;;;;;7.83;4.37;;;19.40;59.70;;;19.71;49.19;97969.38;5011843;28;20997;-70
2022/08/13 05:03:29;;;;;;;4.90;4.60;;;19.80;58.70;;;19.69;47.86;97922.22;5025944;28;20459;-71
2022/08/13 05:05:57;;;;;;;4.40;4.10;;;20.10;58.00;;;20.43;46.80;97970.28;5027169;28;20438;-69
2022/08/13 05:08:25;;;;;;;4.90;4.50;;;20.60;56.90;;;20.38;46.86;97969.19;5050449;28;20485;-70
2022/08/13 05:10:53;;;;;;;4.93;4.53;;;20.70;56.20;;;20.53;46.17;97970.22;5044828;28;20815;-69
2022/08/13 05:13:24;;;;;;;4.50;4.20;;;20.80;55.80;;;20.53;46.23;97973.78;5016870;28;20517;-71
2022/08/13 05:15:54;;;;;;;12.07;5.40;;;20.90;55.40;;;20.19;46.91;97974.50;5009836;28;20464;-70
2022/08/13 05:18:22;;;;;;;5.50;4.70;;;20.90;54.90;;;20.09;47.30;97974.50;5011313;28;20455;-70
2022/08/13 05:20:50;;;;;;;6.87;4.90;;;20.70;55.10;;;19.91;47.75;97964.94;5020103;28;20459;-70
2022/08/13 05:23:18;;;;;;;5.97;4.70;;;20.50;55.20;;;19.78;48.54;97967.13;5028717;28;20450;-70
2022/08/13 05:25:47;;;;;;;4.90;4.00;;;20.20;55.70;;;19.80;46.96;97926.59;5028178;28;20643;-70
2022/08/13 05:28:16;;;;;;;5.37;4.87;;;20.30;55.40;;;20.43;46.79;97964.78;5045901;28;20458;-70
2022/08/13 05:30:43;;;;;;;4.67;4.37;;;20.40;55.50;;;20.91;45.31;97959.59;5029663;28;20485;-70
2022/08/13 05:33:16;;;;;;;4.43;4.03;;;20.90;55.00;;;21.27;44.42;97972.25;5030538;28;20497;-70
2022/08/13 05:35:45;;;;;;;5.10;4.60;;;21.20;54.60;;;21.19;44.60;97970.09;5028532;28;20541;-71
2022/08/13 05:38:15;;;;;;;4.33;4.03;;;21.40;53.70;;;21.37;44.54;97974.09;5030453;28;20460;-70
2022/08/13 05:40:42;;;;;;;5.20;4.70;;;21.60;53.80;;;21.21;44.64;97974.22;5023935;28;20455;-71
2022/08/13 05:43:16;;;;;;;4.90;4.40;;;21.70;53.50;;;20.90;45.47;97968.94;5040281;28;20503;-70
2022/08/13 05:45:44;;;;;;;4.47;4.17;;;21.40;53.40;;;21.36;44.94;97956.78;5047683;28;20457;-71
2022/08/13 05:48:11;;;;;;;5.23;3.63;;;21.70;53.70;;;20.92;46.27;97965.91;5048490;28;20445;-70
2022/08/13 05:50:38;;;;;;;4.60;4.10;;;21.80;53.60;;;21.58;44.48;97957.41;5049006;28;20563;-70
2022/08/13 05:53:09;;;;;;;5.90;4.70;;;22.00;53.40;;;21.89;43.64;97970.88;5048615;28;20599;-70
2022/08/13 05:55:37;;;;;;;5.00;4.50;;;22.40;52.80;;;21.45;44.50;97973.47;5037571;28;20854;-70
2022/08/13 05:58:05;;;;;;;4.43;4.13;;;22.40;52.50;;;21.47;44.29;97965.78;5030035;28;20503;-71
2022/08/13 06:03:37;;;;;;;4.80;4.30;;;21.20;53.00;;;19.32;49.71;97969.94;4966634;28;20471;-70
2022/08/13 06:06:07;;;;;;;5.93;4.50;;;19.80;54.70;;;18.63;52.11;97976.41;4966447;28;20485;-70
2022/08/13 06:08:36;;;;;;;5.60;4.77;;;19.00;56.50;;;18.60;53.03;97970.63;4985332;28;21045;-69
2022/08/13 06:11:07;;;;;;;4.57;4.13;;;18.60;57.60;;;18.51;52.81;97978.53;5029860;28;20478;-70
2022/08/13 06:13:38;;;;;;;5.83;4.60;;;18.40;58.00;;;18.46;52.79;97975.78;5028874;28;20455;-69
2022/08/13 06:16:08;;;;;;;5.00;4.70;;;18.40;58.40;;;18.39;53.50;97971.38;5008195;28;20474;-70
2022/08/13 06:18:43;;;;;;;4.43;4.13;;;18.30;58.80;;;18.47;53.38;97966.50;5008995;28;20443;-70
2022/08/13 06:21:14;;;;;;;4.60;4.30;;;18.30;59.10;;;18.52;53.27;97953.66;5024340;28;20466;-71
2022/08/13 06:23:45;;;;;;;4.63;4.33;;;18.40;59.30;;;18.67;52.85;97961.06;5028258;28;20454;-70
2022/08/13 06:26:15;;;;;;;4.70;4.30;;;18.50;59.10;;;18.89;52.57;97968.25;5028191;28;20452;-69
2022/08/13 06:28:44;;;;;;;4.77;4.37;;;18.60;59.30;;;18.91;52.34;97955.09;5043370;28;20949;-72
2022/08/13 06:31:16;;;;;;;6.03;4.80;;;18.60;59.30;;;19.19;52.29;97963.94;5024784;28;20474;-68
2022/08/13 06:33:46;;;;;;;4.67;4.27;;;18.80;59.60;;;19.24;51.47;97961.19;5028646;28;20549;-70
2022/08/13 06:36:16;;;;;;;4.40;4.10;;;19.10;59.10;;;19.20;52.14;97962.84;5028464;28;20965;-69
2022/08/13 06:38:45;;;;;;;4.40;4.00;;;19.20;59.20;;;19.51;51.21;97960.09;5036886;28;20499;-71
2022/08/13 06:41:13;;;;;;;4.43;3.90;;;19.30;58.90;;;19.64;50.52;97955.13;5048546;28;20481;-73
2022/08/13 06:43:43;;;;;;;4.33;4.03;;;19.40;58.60;;;19.91;50.01;97964.94;5047753;28;20467;-70
2022/08/13 06:46:15;;;;;;;4.30;4.00;;;19.60;58.50;;;19.99;49.59;97963.56;5047159;28;20874;-70
2022/08/13 06:48:42;;;;;;;4.07;3.87;;;19.70;58.10;;;19.91;49.97;97971.25;5046873;28;20448;-70
2022/08/13 06:51:13;;;;;;;4.67;4.27;;;19.80;58.00;;;20.12;49.95;97957.50;5063777;28;20477;-74
2022/08/13 06:53:43;;;;;;;4.53;4.10;;;19.90;58.30;;;20.41;49.08;97961.50;5046395;28;20450;-70
2022/08/13 06:56:16;;;;;;;4.20;3.90;;;20.10;58.00;;;20.51;48.92;97961.44;5034610;28;20486;-69
2022/08/13 06:58:45;;;;;;;4.30;3.90;;;20.30;58.00;;;20.53;48.42;97960.06;5027669;28;20442;-69
2022/08/13 07:01:18;;;;;;;4.77;4.47;;;20.30;57.30;;;20.59;48.63;97957.28;5027203;28;20464;-68
2022/08/13 07:03:46;;;;;;;5.30;3.90;;;20.40;57.20;;;21.04;47.82;97954.56;5027104;28;20456;-69
2022/08/13 07:06:17;;;;;;;3.97;3.60;;;20.70;57.30;;;21.11;47.00;97959.75;5038606;28;20519;-70
2022/08/13 07:08:46;;;;;;;4.17;3.80;;;20.90;56.60;;;21.16;47.29;97960.53;5046259;28;20522;-72
2022/08/13 07:11:26;;;;;;;5.50;5.00;;;21.10;56.70;;;21.54;46.62;97953.59;5048723;28;20481;-69
2022/08/13 07:13:57;;;;;;;4.40;4.00;;;21.30;56.60;;;21.65;46.33;97960.66;5029836;28;20447;-70
2022/08/13 07:16:30;;;;;;;4.07;3.77;;;21.50;56.10;;;21.87;45.33;97962.94;5027238;28;20460;-69
2022/08/13 07:19:00;;;;;;;3.50;3.30;;;21.80;55.60;;;21.99;45.67;97962.53;5045024;28;20458;-69
2022/08/13 07:21:30;;;;;;;3.70;3.40;;;21.90;55.60;;;21.87;45.31;97964.84;5048466;28;20449;-70
2022/08/13 07:24:02;;;;;;;4.20;3.80;;;21.90;55.10;;;22.23;44.79;97961.72;5047174;28;20459;-70
2022/08/13 07:26:31;;;;;;;4.40;4.00;;;22.10;55.10;;;22.29;44.58;97963.28;5031627;28;20468;-70
2022/08/13 07:29:01;;;;;;;5.60;3.90;;;22.20;55.00;;;22.59;43.94;97972.28;5042356;28;20950;-69
2022/08/13 07:31:34;;;;;;;4.40;4.10;;;22.30;54.60;;;22.71;43.26;97962.78;5025931;28;20530;-73
2022/08/13 07:34:05;;;;;;;5.27;3.67;;;22.40;54.20;;;22.86;43.98;97972.75;5045358;28;20454;-70
2022/08/13 07:36:36;;;;;;;4.60;4.20;;;22.50;54.70;;;22.84;43.38;97967.56;5046866;28;20546;-69
2022/08/13 07:39:09;;;;;;;3.77;3.50;;;22.50;54.40;;;22.99;44.42;97968.44;5034836;28;20462;-70
2022/08/13 07:41:42;;;;;;;4.93;4.63;;;22.60;55.30;;;23.17;43.93;97958.50;5024433;28;20452;-70
2022/08/13 07:44:14;;;;;;;4.40;4.00;;;22.70;55.20;;;23.36;43.69;97955.75;5006207;28;20442;-72
2022/08/13 07:46:44;;;;;;;5.03;4.00;;;22.80;55.20;;;23.55;43.44;97952.94;5024029;28;20516;-70
2022/08/13 07:49:13;;;;;;;3.80;3.50;;;23.10;55.00;;;23.90;41.52;97958.94;5022728;28;20453;-74
2022/08/13 07:51:42;;;;;;;5.70;4.23;;;23.30;54.00;;;23.55;42.41;97960.38;5023965;28;20480;-70
2022/08/13 07:54:11;;;;;;;4.60;4.20;;;23.30;53.80;;;23.96;42.13;97956.88;5007386;28;20455;-70
2022/08/13 07:56:39;;;;;;;6.37;3.67;;;23.40;54.00;;;24.16;40.90;97957.63;5025407;28;20872;-73
2022/08/13 07:59:11;;;;;;;3.23;2.93;;;23.60;53.60;;;24.14;40.61;97957.13;5041537;28;20453;-69
2022/08/13 08:01:49;;;;;;;3.57;3.30;;;23.70;52.80;;;24.33;40.32;97949.53;5026676;28;20461;-70
2022/08/13 08:04:19;;;;;;;5.70;4.70;;;23.80;52.50;;;24.35;40.67;97945.69;5041707;28;20458;-70
2022/08/13 08:06:49;;;;;;;4.07;3.77;;;24.00;52.70;;;24.43;40.57;97954.06;5026561;28;20462;-71
2022/08/13 08:09:18;;;;;;;3.70;3.50;;;24.00;52.60;;;24.33;40.34;97954.25;5042518;28;21000;-70
2022/08/13 08:14:31;;;;;;;3.27;3.07;;;24.10;52.00;;;24.55;39.56;97956.28;5055521;28;20817;-72
2022/08/13 08:17:03;;;;;;;3.83;3.53;;;24.30;51.70;;;24.50;40.27;97959.16;5031914;28;20481;-72
2022/08/13 08:19:31;;;;;;;3.43;3.23;;;24.30;51.80;;;24.76;39.61;97953.09;5028955;28;20497;-70
2022/08/13 08:22:01;;;;;;;3.20;3.00;;;24.40;52.00;;;25.06;39.35;97950.75;5030582;28;20450;-70
2022/08/13 08:24:32;;;;;;;3.23;3.03;;;24.70;51.80;;;25.38;38.76;97957.16;5028349;28;20464;-73
2022/08/13 08:27:04;;;;;;;4.30;3.60;;;24.80;51.70;;;25.63;38.38;97954.91;5031062;28;20452;-71
2022/08/13 08:29:33;;;;;;;3.43;3.23;;;25.10;51.70;;;25.62;38.04;97969.03;5022191;28;20460;-69
2022/08/13 08:32:08;;;;;;;4.40;4.00;;;25.20;51.20;;;25.64;37.40;97953.75;5042630;28;21063;-71
2022/08/13 08:34:37;;;;;;;4.00;3.60;;;25.20;50.60;;;25.50;37.96;97944.72;5048213;28;20522;-69
2022/08/13 08:37:05;;;;;;;5.03;3.57;;;25.30;50.70;;;25.58;37.91;97964.13;5051620;28;20444;-70
2022/08/13 08:42:40;;;;;;;3.20;3.00;;;25.30;50.70;;;25.64;37.88;97962.06;5051693;28;20460;-69
2022/08/13 08:45:13;;;;;;;4.07;3.67;;;25.40;50.40;;;25.56;37.81;97958.09;5062847;28;20451;-69
2022/08/13 08:47:43;;;;;;;5.43;3.00;;;25.20;50.70;;;25.73;37.58;97959.34;5039422;28;20482;-70
2022/08/13 08:50:11;;;;;;;3.97;3.57;;;25.30;50.30;;;25.83;36.93;97958.25;5022936;28;20506;-69
2022/08/13 08:55:25;;;;;;;4.33;3.33;;;25.60;49.90;;;25.93;35.96;97949.69;5007763;28;20535;-69
2022/08/13 08:57:52;;;;;;;3.50;3.20;;;25.50;48.70;;;25.84;35.29;97954.34;5046710;28;20827;-72
2022/08/13 09:00:23;;;;;;;2.73;2.53;;;25.60;47.90;;;25.65;35.46;97951.81;5029797;28;20470;-71
2022/08/13 09:02:54;;;;;;;3.40;3.20;;;25.60;47.70;;;25.78;35.56;97948.16;5030309;28;20446;-70
2022/08/13 09:05:21;;;;;;;3.63;3.33;;;25.60;47.80;;;25.69;34.92;97948.09;5027764;28;20450;-70
2022/08/13 09:07:49;;;;;;;2.80;2.70;;;25.60;47.60;;;25.78;35.25;97950.09;5046317;28;20465;-71
2022/08/13 09:10:20;;;;;;;3.40;3.10;;;25.60;47.90;;;25.70;35.27;97937.84;5027383;28;20478;-69
2022/08/13 09:12:50;;;;;;;3.20;2.90;;;25.60;47.50;;;25.73;34.93;97934.44;5029398;28;20455;-70
2022/08/13 09:15:21;;;;;;;3.47;2.83;;;25.60;47.30;;;25.88;34.79;97938.75;5028774;28;20453;-68
2022/08/13 09:17:51;;;;;;;3.30;3.00;;;25.70;47.20;;;25.99;35.10;97937.31;5046362;28;20450;-69
2022/08/13 09:20:22;;;;;;;3.47;3.17;;;25.80;47.30;;;26.23;33.97;97933.38;5044185;28;20524;-72
2022/08/13 09:23:03;;;;;;;3.43;3.13;;;26.00;46.80;;;26.38;33.36;97939.59;5025949;28;20978;-71
2022/08/13 09:25:32;;;;;;;2.80;2.70;;;26.20;46.70;;;26.00;33.25;97891.91;5038014;28;20466;-71
2022/08/13 09:28:00;;;;;;;5.07;2.50;;;26.20;46.00;;;26.36;33.54;97933.56;5041789;28;20810;-69
2022/08/13 09:30:27;;;;;;;2.53;2.43;;;26.20;46.20;;;26.39;33.44;97935.69;5047362;28;21016;-69
2022/08/13 09:32:59;;;;;;;3.20;2.90;;;26.20;46.00;;;26.68;33.26;97925.97;5032807;28;21010;-69
2022/08/13 09:35:28;;;;;;;4.20;3.00;;;26.40;46.10;;;26.60;33.28;97935.88;5047001;28;20449;-70
2022/08/13 09:37:57;;;;;;;2.90;2.70;;;26.50;46.00;;;26.60;33.18;97930.34;5049133;28;20506;-71
2022/08/13 09:40:27;;;;;;;2.83;2.60;;;26.50;45.80;;;27.07;31.59;97932.53;5047382;28;20466;-70
2022/08/13 09:43:02;;;;;;;2.80;2.40;;;26.80;45.30;;;27.52;30.17;97922.16;5047331;28;20465;-70
2022/08/13 09:45:32;;;;;;;3.07;2.87;;;27.00;44.40;;;27.60;30.04;97920.53;5040602;28;20450;-73
2022/08/13 09:48:02;;;;;;;3.27;3.07;;;27.30;43.90;;;27.32;30.32;97921.72;5045909;28;20458;-72
2022/08/13 09:50:30;;;;;;;2.97;2.70;;;27.20;43.70;;;27.23;30.91;97918.16;5044037;28;20501;-73
2022/08/13 09:52:57;;;;;;;3.27;2.60;;;27.10;44.10;;;27.27;30.21;97924.66;5045172;28;20453;-69
2022/08/13 09:55:25;;;;;;;3.33;2.70;;;27.10;43.60;;;27.40;30.35;97912.56;5027435;28;20465;-69
2022/08/13 09:57:54;;;;;;;2.53;2.33;;;27.10;43.90;;;27.49;30.44;97908.94;5045552;28;20446;-70
2022/08/13 10:00:24;;;;;;;3.93;3.33;;;27.20;43.90;;;28.09;29.39;97909.06;5028061;28;20954;-69
2022/08/13 10:02:56;;;;;;;2.90;2.70;;;27.50;43.70;;;28.67;28.65;97900.25;5030415;28;20945;-69
2022/08/13 10:05:25;;;;;;;2.70;2.60;;;28.00;43.60;;;28.69;28.91;97903.50;5046496;28;20454;-69
2022/08/13 10:07:54;;;;;;;3.23;2.93;;;28.30;43.30;;;28.15;29.24;97868.88;5048571;28;20496;-71
2022/08/13 10:10:23;;;;;;;2.80;2.70;;;28.20;43.40;;;28.02;29.46;97903.25;5048723;28;20552;-69
2022/08/13 10:12:52;;;;;;;3.43;3.13;;;27.90;43.10;;;27.67;30.46;97910.53;5056576;28;20453;-69
2022/08/13 10:15:20;;;;;;;2.60;2.50;;;27.60;43.40;;;27.47;30.49;97906.53;5025523;28;20447;-71
2022/08/13 10:17:51;;;;;;;2.93;2.20;;;27.30;43.50;;;27.43;31.32;97903.59;5045203;28;20446;-73
2022/08/13 10:20:22;;;;;;;3.07;2.87;;;27.30;44.00;;;27.06;31.48;97913.44;5043483;28;20458;-71
2022/08/13 10:22:51;;;;;;;3.47;3.20;;;27.10;43.90;;;26.64;32.16;97911.94;5029192;28;21208;-68
2022/08/13 10:25:19;;;;;;;2.70;2.50;;;26.70;44.10;;;26.27;32.84;97903.91;5039614;28;20454;-71
2022/08/13 10:27:48;;;;;;;3.40;3.20;;;26.40;44.40;;;26.17;32.61;97912.50;5028243;28;20512;-69
2022/08/13 10:30:17;;;;;;;3.20;2.90;;;26.10;44.50;;;26.47;33.15;97909.16;5043732;28;20553;-71
2022/08/13 10:32:46;;;;;;;3.47;3.17;;;26.20;44.80;;;26.70;32.15;97907.06;5043865;28;20485;-72
2022/08/13 10:35:17;;;;;;;3.13;2.60;;;26.40;44.60;;;26.86;31.90;97905.44;5038485;28;20535;-69
2022/08/13 10:37:45;;;;;;;3.70;3.00;;;26.60;44.40;;;27.05;30.97;97901.53;5009808;28;20447;-71
2022/08/13 10:40:15;;;;;;;3.23;3.03;;;26.80;43.80;;;27.09;31.54;97905.28;5023543;28;21009;-69
2022/08/13 10:42:44;;;;;;;3.30;3.00;;;27.00;44.20;;;27.19;31.51;97901.34;5026441;28;20463;-76
2022/08/13 10:45:13;;;;;;;3.37;3.17;;;27.00;44.10;;;27.17;30.77;97892.56;5022070;28;20462;-71
2022/08/13 10:47:48;;;;;;;2.80;2.60;;;27.10;43.60;;;27.12;31.31;97885.22;5024375;28;20537;-73